Terminal Aerodrome Forecast
Issued by NWS

Home | Current Version | Previous Version | Text Only | Print | Product List | Glossary On
Versions: 1 2 3 4 5 6 7 8 9 10 11 12 13 14 15
863
FTUS46 KMFR 251736
TAFRBG
TAF
KRBG 251736Z 2518/2618 35008KT P6SM FEW025
     FM252100 36012G18KT P6SM SKC
     FM260400 VRB03KT P6SM SKC=

USA.gov is the U.S. government's official web portal to all federal, state and local government web resources and services.